createdAt,value
2022-10-01T00:05:12.778Z,929
2022-10-01T00:10:43.258Z,932
2022-10-01T00:16:12.877Z,927
2022-10-01T00:21:43.254Z,933
2022-10-01T00:27:13.727Z,931
2022-10-01T00:32:43.244Z,931
2022-10-01T00:38:13.703Z,928
2022-10-01T00:43:44.189Z,923
2022-10-01T00:49:13.678Z,928
2022-10-01T00:54:44.148Z,925
2022-10-01T01:00:14.630Z,930
2022-10-01T01:05:44.150Z,925
2022-10-01T01:11:14.625Z,926
2022-10-01T01:16:45.089Z,924
2022-10-01T01:22:14.608Z,929
2022-10-01T01:27:45.181Z,925
2022-10-01T01:33:14.568Z,925
2022-10-01T01:38:44.089Z,917
2022-10-01T01:44:14.573Z,920
2022-10-01T01:49:44.090Z,922
2022-10-01T01:55:14.613Z,918
2022-10-01T02:00:45.057Z,916
2022-10-01T02:06:15.531Z,907
2022-10-01T02:11:46.037Z,908
2022-10-01T02:17:15.509Z,901
2022-10-01T02:22:45.981Z,905
2022-10-01T02:28:16.565Z,904
2022-10-01T02:33:45.943Z,901
2022-10-01T02:39:16.443Z,897
2022-10-01T02:44:46.922Z,896
2022-10-01T02:50:16.384Z,903
2022-10-01T02:55:46.885Z,905
2022-10-01T03:01:17.425Z,899
2022-10-01T03:06:46.869Z,895
2022-10-01T03:12:17.339Z,896
2022-10-01T03:17:46.857Z,903
2022-10-01T03:23:17.294Z,893
2022-10-01T03:28:47.764Z,903
2022-10-01T03:34:18.280Z,895
2022-10-01T03:39:47.745Z,895
2022-10-01T03:45:18.216Z,895
2022-10-01T03:50:47.733Z,894
2022-10-01T03:56:18.186Z,895
2022-10-01T04:01:48.844Z,889
2022-10-01T04:07:18.244Z,888
2022-10-01T04:12:48.653Z,889
2022-10-01T04:18:19.126Z,885
2022-10-01T04:23:48.638Z,886
2022-10-01T04:29:19.110Z,889
2022-10-01T04:34:48.602Z,888
2022-10-01T04:40:19.112Z,889
2022-10-01T04:45:49.580Z,888
2022-10-01T04:51:19.066Z,892
2022-10-01T04:56:49.557Z,891
2022-10-01T05:02:20.126Z,885
2022-10-01T05:07:49.506Z,887
2022-10-01T05:13:20.030Z,886
2022-10-01T05:18:49.651Z,908
2022-10-01T05:24:20.130Z,922
2022-10-01T05:29:50.611Z,927
2022-10-01T05:35:20.094Z,984
2022-10-01T05:40:50.550Z,986
2022-10-01T05:46:20.114Z,973
2022-10-01T05:51:50.530Z,968
2022-10-01T05:57:21.007Z,961
2022-10-01T06:02:51.777Z,966
2022-10-01T06:08:20.975Z,959
2022-10-01T06:13:51.452Z,962
2022-10-01T06:19:21.035Z,965
2022-10-01T06:24:56.028Z,1082
2022-10-01T06:30:21.926Z,1164
2022-10-01T06:35:52.556Z,1168
2022-10-01T06:41:22.995Z,1139
2022-10-01T06:46:53.474Z,1108
2022-10-01T06:52:24.130Z,1092
2022-10-01T06:57:54.806Z,1101
2022-10-01T07:03:25.040Z,1189
2022-10-01T07:08:54.554Z,1232
2022-10-01T07:14:24.989Z,1246
2022-10-01T07:19:55.493Z,1261
2022-10-01T07:25:24.993Z,1354
2022-10-01T07:30:55.450Z,1326
2022-10-01T07:36:24.922Z,1359
2022-10-01T07:41:55.517Z,1360
2022-10-01T07:47:25.878Z,1352
2022-10-01T07:52:55.372Z,1323
2022-10-01T07:58:25.866Z,1340
2022-10-01T08:03:56.301Z,1275
2022-10-01T08:09:25.806Z,1233
2022-10-01T08:14:56.315Z,1170
2022-10-01T08:20:26.750Z,1190
2022-10-01T08:25:56.261Z,1122
2022-10-01T08:31:26.769Z,1083
2022-10-01T08:36:56.384Z,1065
2022-10-01T08:42:26.698Z,1045
2022-10-01T08:47:57.195Z,1056
2022-10-01T08:53:26.687Z,1073
2022-10-01T08:58:56.157Z,1097
2022-10-01T09:04:26.724Z,1161
2022-10-01T09:09:57.115Z,1204
2022-10-01T09:15:26.630Z,1218
2022-10-01T09:20:57.105Z,1240
2022-10-01T09:26:27.701Z,1243
2022-10-01T09:31:57.269Z,1289
2022-10-01T09:37:27.697Z,1296
2022-10-01T09:42:58.120Z,1314
2022-10-01T09:48:27.648Z,1336
2022-10-01T09:53:58.124Z,1312
2022-10-01T09:59:28.593Z,1319
2022-10-01T10:04:58.089Z,1338
2022-10-01T10:10:28.691Z,1363
2022-10-01T10:15:59.287Z,1357
2022-10-01T10:21:28.647Z,1453
2022-10-01T10:26:59.146Z,1432
2022-10-01T10:32:29.605Z,1369
2022-10-01T10:37:59.092Z,1344
2022-10-01T10:43:29.584Z,1322
2022-10-01T10:49:00.122Z,1310
2022-10-01T10:54:29.558Z,1303
2022-10-01T11:00:00.141Z,1318
2022-10-01T11:05:29.529Z,1397
2022-10-01T11:11:00.010Z,1370
2022-10-01T11:16:30.487Z,1282
2022-10-01T11:21:59.954Z,1256
2022-10-01T11:27:30.543Z,1244
2022-10-01T11:33:01.046Z,1228
2022-10-01T11:38:31.528Z,1231
2022-10-01T11:44:00.994Z,1254
2022-10-01T11:49:31.472Z,1283
2022-10-01T11:55:01.943Z,1280
2022-10-01T12:00:31.414Z,1285
2022-10-01T12:06:01.934Z,1286
2022-10-01T12:11:32.392Z,1291
2022-10-01T12:17:01.862Z,1290
2022-10-01T12:22:32.388Z,1291
2022-10-01T12:28:01.927Z,1295
2022-10-01T12:33:32.320Z,1315
2022-10-01T12:39:01.863Z,1308
2022-10-01T12:44:32.406Z,1316
2022-10-01T12:50:02.869Z,1331
2022-10-01T12:55:32.369Z,1336
2022-10-01T13:01:02.955Z,1331
2022-10-01T13:06:33.704Z,1284
2022-10-01T13:12:02.848Z,1252
2022-10-01T13:17:34.929Z,1302
2022-10-01T13:23:02.790Z,1310
2022-10-01T13:28:33.304Z,1269
2022-10-01T13:34:03.731Z,1249
2022-10-01T13:39:38.877Z,1193
2022-10-01T13:45:03.756Z,1121
2022-10-01T13:50:34.191Z,1120
2022-10-01T13:56:03.666Z,1146
2022-10-01T14:01:34.307Z,759
2022-10-01T14:07:04.640Z,615
2022-10-01T14:12:34.104Z,574
2022-10-01T14:18:04.759Z,532
2022-10-01T14:23:35.216Z,557
2022-10-01T14:29:04.700Z,623
2022-10-01T14:34:35.206Z,653
2022-10-01T14:40:05.677Z,677
2022-10-01T14:45:35.165Z,700
2022-10-01T14:51:05.653Z,614
2022-10-01T14:56:36.532Z,587
2022-10-01T15:02:05.597Z,554
2022-10-01T15:07:36.091Z,555
2022-10-01T15:13:06.539Z,584
2022-10-01T15:18:36.040Z,596
2022-10-01T15:24:06.543Z,602
2022-10-01T15:29:37.019Z,607
2022-10-01T15:35:06.485Z,614
2022-10-01T15:40:36.972Z,631
2022-10-01T15:46:07.497Z,687
2022-10-01T15:51:36.943Z,715
2022-10-01T15:57:07.438Z,742
2022-10-01T16:02:37.871Z,765
2022-10-01T16:08:08.459Z,796
2022-10-01T16:13:38.961Z,823
2022-10-01T16:19:08.514Z,847
2022-10-01T16:24:38.038Z,869
2022-10-01T16:30:08.514Z,868
2022-10-01T16:35:37.974Z,882
2022-10-01T16:41:08.443Z,882
2022-10-01T16:46:38.949Z,893
2022-10-01T16:52:08.409Z,895
2022-10-01T16:57:38.896Z,908
2022-10-01T17:03:09.494Z,914
2022-10-01T17:08:38.886Z,918
2022-10-01T17:14:09.348Z,918
2022-10-01T17:19:39.845Z,926
2022-10-01T17:25:09.299Z,950
2022-10-01T17:30:39.791Z,942
2022-10-01T17:36:10.295Z,956
2022-10-01T17:41:39.740Z,999
2022-10-01T17:47:10.206Z,983
2022-10-01T17:52:40.708Z,985
2022-10-01T17:58:10.184Z,988
2022-10-01T18:03:40.665Z,987
2022-10-01T18:09:10.187Z,1001
2022-10-01T18:14:40.627Z,1015
2022-10-01T18:20:11.078Z,995
2022-10-01T18:25:40.592Z,1011
2022-10-01T18:31:11.120Z,1039
2022-10-01T18:36:41.518Z,1043
2022-10-01T18:42:11.031Z,1052
2022-10-01T18:47:41.479Z,1060
2022-10-01T18:53:11.960Z,1066
2022-10-01T18:58:41.472Z,1074
2022-10-01T19:04:11.913Z,1073
2022-10-01T19:09:41.431Z,1077
2022-10-01T19:15:11.904Z,1081
2022-10-01T19:20:45.925Z,1084
2022-10-01T19:26:11.855Z,1091
2022-10-01T19:31:42.431Z,1102
2022-10-01T19:37:12.808Z,1096
2022-10-01T19:42:42.302Z,1092
2022-10-01T19:48:12.796Z,1068
2022-10-01T19:53:43.257Z,1059
2022-10-01T19:59:13.717Z,1049
2022-10-01T20:04:42.253Z,1043
2022-10-01T20:10:12.693Z,1031
2022-10-01T20:15:43.325Z,1034
2022-10-01T20:21:12.866Z,1034
2022-10-01T20:26:43.301Z,1031
2022-10-01T20:32:13.791Z,1028
2022-10-01T20:37:44.276Z,1022
2022-10-01T20:43:13.760Z,1024
2022-10-01T20:48:44.259Z,1024
2022-10-01T20:54:14.729Z,1025
2022-10-01T20:59:44.343Z,1020
2022-10-01T21:05:14.823Z,1020
2022-10-01T21:10:44.337Z,1021
2022-10-01T21:16:14.883Z,1023
2022-10-01T21:21:45.276Z,1022
2022-10-01T21:27:15.768Z,1024
2022-10-01T21:32:45.231Z,1011
2022-10-01T21:38:15.718Z,1020
2022-10-01T21:43:45.228Z,1013
2022-10-01T21:49:15.681Z,1018
2022-10-01T21:54:46.156Z,1013
2022-10-01T22:00:15.671Z,1015
2022-10-01T22:05:46.131Z,1014
2022-10-01T22:11:15.620Z,1010
2022-10-01T22:16:46.208Z,1005
2022-10-01T22:22:16.634Z,1003
2022-10-01T22:27:46.162Z,1006
2022-10-01T22:33:16.666Z,1005
2022-10-01T22:38:47.082Z,1008
2022-10-01T22:44:16.579Z,1006
2022-10-01T22:49:47.066Z,1003
2022-10-01T22:55:17.513Z,996
2022-10-01T23:00:47.060Z,1003
2022-10-01T23:06:17.536Z,1004
2022-10-01T23:11:47.991Z,999
2022-10-01T23:17:17.457Z,1002
2022-10-01T23:22:47.965Z,998
2022-10-01T23:28:18.534Z,1004
2022-10-01T23:33:48.914Z,1009
2022-10-01T23:39:19.503Z,1008
2022-10-01T23:44:49.125Z,1002
2022-10-01T23:50:19.620Z,1002
2022-10-01T23:55:50.119Z,998
